createdAt,value
2022-11-04T00:00:29.913Z,11.58
2022-11-04T00:01:32.889Z,11.63
2022-11-04T00:02:34.583Z,11.67
2022-11-04T00:03:36.413Z,11.62
2022-11-04T00:04:37.965Z,11.62
2022-11-04T00:05:39.496Z,11.53
2022-11-04T00:06:41.749Z,11.49
2022-11-04T00:08:02.171Z,11.51
2022-11-04T00:09:11.524Z,11.49
2022-11-04T00:10:13.427Z,11.38
2022-11-04T00:11:33.360Z,11.38
2022-11-04T00:12:34.938Z,11.24
2022-11-04T00:13:37.891Z,11.09
2022-11-04T00:14:40.232Z,11.08
2022-11-04T00:16:01.160Z,11.14
2022-11-04T00:17:19.818Z,11.06
2022-11-04T00:18:21.745Z,10.95
2022-11-04T00:19:24.537Z,10.94
2022-11-04T00:20:44.531Z,11.04
2022-11-04T00:22:06.445Z,11.04
2022-11-04T00:23:27.086Z,11.07
2022-11-04T00:24:47.504Z,11.07
2022-11-04T00:26:08.085Z,11.12
2022-11-04T00:27:30.986Z,11.04
2022-11-04T00:28:45.296Z,11.01
2022-11-04T00:29:47.155Z,11.07
2022-11-04T00:30:49.201Z,11.10
2022-11-04T00:32:09.347Z,11.11
2022-11-04T00:33:40.391Z,11.13
2022-11-04T00:34:43.465Z,10.99
2022-11-04T00:35:52.034Z,11.07
2022-11-04T00:36:53.578Z,11.10
2022-11-04T00:37:55.576Z,11.16
2022-11-04T00:38:58.271Z,11.10
2022-11-04T00:40:00.113Z,11.09
2022-11-04T00:41:02.056Z,11.14
2022-11-04T00:42:04.554Z,11.12
2022-11-04T00:43:06.370Z,11.19
2022-11-04T00:44:09.070Z,11.19
2022-11-04T00:45:11.819Z,11.16
2022-11-04T00:46:13.359Z,10.96
2022-11-04T00:47:15.353Z,11.08
2022-11-04T00:48:16.996Z,11.07
2022-11-04T00:49:18.764Z,11.11
2022-11-04T00:50:20.382Z,11.24
2022-11-04T00:51:22.776Z,11.35
2022-11-04T00:52:26.723Z,11.27
2022-11-04T00:53:28.379Z,11.30
2022-11-04T00:54:30.333Z,11.25
2022-11-04T00:55:32.369Z,11.20
2022-11-04T00:56:37.318Z,11.10
2022-11-04T00:57:39.090Z,11.10
2022-11-04T00:58:40.946Z,10.96
2022-11-04T00:59:42.824Z,11.04
2022-11-04T01:00:44.591Z,11.01
2022-11-04T01:01:47.040Z,11.10
2022-11-04T01:02:48.828Z,11.09
2022-11-04T01:03:53.267Z,11.15
2022-11-04T01:04:55.015Z,11.27
2022-11-04T01:05:58.685Z,11.27
2022-11-04T01:07:01.182Z,11.29
2022-11-04T01:08:04.305Z,11.28
2022-11-04T01:09:10.299Z,11.32
2022-11-04T01:10:13.536Z,11.12
2022-11-04T01:11:16.325Z,11.32
2022-11-04T01:12:18.379Z,11.25
2022-11-04T01:13:20.287Z,11.42
2022-11-04T01:14:22.308Z,11.44
2022-11-04T01:15:25.571Z,11.48
2022-11-04T01:17:29.842Z,11.45
2022-11-04T01:18:31.964Z,11.47
2022-11-04T01:19:33.570Z,11.50
2022-11-04T01:20:35.473Z,11.42
2022-11-04T01:21:37.414Z,11.49
2022-11-04T01:22:38.969Z,11.46
2022-11-04T01:23:42.180Z,11.44
2022-11-04T01:24:45.796Z,11.43
2022-11-04T01:25:49.033Z,11.51
2022-11-04T01:26:52.062Z,11.44
2022-11-04T01:27:53.832Z,11.51
2022-11-04T01:28:58.863Z,11.49
2022-11-04T01:30:00.522Z,11.42
2022-11-04T01:31:31.459Z,11.43
2022-11-04T01:32:33.596Z,11.40
2022-11-04T01:33:37.134Z,11.33
2022-11-04T01:34:43.306Z,11.41
2022-11-04T01:35:49.271Z,11.36
2022-11-04T01:36:51.507Z,11.35
2022-11-04T01:37:53.099Z,11.27
2022-11-04T01:38:57.135Z,11.10
2022-11-04T01:39:58.870Z,11.17
2022-11-04T01:41:01.540Z,11.09
2022-11-04T01:43:15.480Z,11.02
2022-11-04T01:44:42.407Z,10.95
2022-11-04T01:45:52.118Z,10.96
2022-11-04T01:46:54.417Z,10.89
2022-11-04T01:48:05.611Z,11.02
2022-11-04T01:49:31.266Z,11.05
2022-11-04T01:50:35.195Z,11.07
2022-11-04T01:51:41.920Z,11.06
2022-11-04T01:52:46.901Z,11.03
2022-11-04T01:53:52.029Z,10.98
2022-11-04T01:54:57.759Z,10.96
2022-11-04T01:56:04.046Z,10.88
2022-11-04T01:57:15.109Z,10.77
2022-11-04T01:58:21.180Z,10.81
2022-11-04T01:59:28.661Z,10.73
2022-11-04T02:00:31.994Z,10.81
2022-11-04T02:01:35.486Z,10.82
2022-11-04T02:02:49.891Z,10.83
2022-11-04T02:04:18.395Z,10.80
2022-11-04T02:05:22.286Z,10.76
2022-11-04T02:06:24.009Z,10.80
2022-11-04T02:07:25.949Z,10.83
2022-11-04T02:08:29.014Z,10.95
2022-11-04T02:09:32.508Z,10.93
2022-11-04T02:10:35.185Z,10.86
2022-11-04T02:11:55.294Z,10.86
2022-11-04T02:13:00.410Z,10.88
2022-11-04T02:14:02.468Z,10.81
2022-11-04T02:15:05.160Z,10.85
2022-11-04T02:16:19.819Z,10.87
2022-11-04T02:17:54.610Z,10.87
2022-11-04T02:19:02.236Z,10.85
2022-11-04T02:20:16.803Z,10.78
2022-11-04T02:21:50.525Z,10.62
2022-11-04T02:23:11.375Z,10.73
2022-11-04T02:24:50.669Z,10.70
2022-11-04T02:26:17.139Z,10.68
2022-11-04T02:27:18.598Z,10.64
2022-11-04T02:28:29.125Z,10.61
2022-11-04T02:29:51.725Z,10.61
2022-11-04T02:30:54.859Z,10.53
2022-11-04T02:32:21.802Z,10.54
2022-11-04T02:33:37.296Z,10.48
2022-11-04T02:34:56.103Z,10.45
2022-11-04T02:36:10.038Z,10.43
2022-11-04T02:37:46.375Z,10.41
2022-11-04T02:39:02.003Z,10.29
2022-11-04T02:40:27.689Z,10.37
2022-11-04T02:41:50.895Z,10.24
2022-11-04T02:43:00.346Z,10.30
2022-11-04T02:44:18.198Z,10.38
2022-11-04T02:45:31.520Z,10.40
2022-11-04T02:46:38.391Z,10.40
2022-11-04T02:47:46.199Z,10.50
2022-11-04T02:48:54.543Z,10.44
2022-11-04T02:50:06.211Z,10.51
2022-11-04T02:51:08.031Z,10.51
2022-11-04T02:52:20.124Z,10.57
2022-11-04T02:53:34.242Z,10.58
2022-11-04T02:54:47.596Z,10.56
2022-11-04T02:55:57.667Z,10.56
2022-11-04T02:57:04.681Z,10.57
2022-11-04T02:58:14.217Z,10.51
2022-11-04T02:59:35.403Z,10.45
2022-11-04T03:00:39.969Z,10.39
2022-11-04T03:01:45.952Z,10.32
2022-11-04T03:02:59.485Z,10.28
2022-11-04T03:04:08.553Z,10.26
2022-11-04T03:05:15.924Z,10.24
2022-11-04T03:06:20.676Z,10.26
2022-11-04T03:07:26.752Z,10.24
2022-11-04T03:08:36.116Z,10.27
2022-11-04T03:09:41.630Z,10.25
2022-11-04T03:10:50.859Z,10.26
2022-11-04T03:12:02.522Z,10.29
2022-11-04T03:13:24.942Z,10.37
2022-11-04T03:14:33.520Z,10.39
2022-11-04T03:15:40.423Z,10.24
2022-11-04T03:16:49.123Z,10.39
2022-11-04T03:17:58.702Z,10.30
2022-11-04T03:19:09.452Z,10.36
2022-11-04T03:20:21.105Z,10.30
2022-11-04T03:21:25.977Z,10.22
2022-11-04T03:22:36.091Z,10.11
2022-11-04T03:23:38.182Z,10.01
2022-11-04T03:24:41.741Z,9.80
2022-11-04T03:25:51.441Z,9.93
2022-11-04T03:27:02.853Z,9.93
2022-11-04T03:28:11.000Z,9.95
2022-11-04T03:29:22.095Z,9.98
2022-11-04T03:30:24.696Z,10.19
2022-11-04T03:31:59.531Z,10.24
2022-11-04T03:33:08.292Z,10.31
2022-11-04T03:34:10.463Z,10.30
2022-11-04T03:35:14.981Z,10.27
2022-11-04T03:36:18.080Z,10.24
2022-11-04T03:37:20.330Z,10.29
2022-11-04T03:38:23.098Z,10.25
2022-11-04T03:39:25.572Z,10.23
2022-11-04T03:40:28.833Z,10.07
2022-11-04T03:41:34.380Z,10.18
2022-11-04T03:42:44.829Z,10.07
2022-11-04T03:43:46.487Z,10.22
2022-11-04T03:44:57.135Z,10.29
2022-11-04T03:45:59.173Z,10.25
2022-11-04T03:47:01.019Z,10.21
2022-11-04T03:48:05.211Z,10.08
2022-11-04T03:49:08.197Z,10.14
2022-11-04T03:50:18.704Z,10.04
2022-11-04T03:51:20.283Z,10.22
2022-11-04T03:52:22.307Z,10.28
2022-11-04T03:54:32.887Z,10.31
2022-11-04T03:56:14.769Z,10.29
2022-11-04T03:57:36.483Z,10.19
2022-11-04T03:58:53.615Z,10.11
2022-11-04T04:00:15.876Z,10.04
2022-11-04T04:01:35.984Z,10.07
2022-11-04T04:03:09.523Z,10.06
2022-11-04T04:04:11.172Z,10.07
2022-11-04T04:05:32.480Z,10.15
2022-11-04T04:06:38.319Z,10.12
2022-11-04T04:07:55.145Z,10.01
2022-11-04T04:09:03.623Z,10.02
2022-11-04T04:10:34.463Z,9.96
2022-11-04T04:11:48.161Z,9.92
2022-11-04T04:12:51.605Z,9.87
2022-11-04T04:14:08.484Z,9.84
2022-11-04T04:15:25.850Z,9.84
2022-11-04T04:16:47.741Z,9.86
2022-11-04T04:17:54.910Z,9.83
2022-11-04T04:19:04.130Z,9.92
2022-11-04T04:20:20.215Z,9.82
2022-11-04T04:21:29.163Z,9.93
2022-11-04T04:22:53.387Z,9.95
2022-11-04T04:24:16.506Z,9.93
2022-11-04T04:25:41.507Z,9.84
2022-11-04T04:27:04.355Z,9.88
2022-11-04T04:28:08.205Z,9.75
2022-11-04T04:29:11.445Z,9.86
2022-11-04T04:30:15.026Z,9.81
2022-11-04T04:31:37.555Z,9.77
2022-11-04T04:32:44.353Z,9.73
2022-11-04T04:33:46.274Z,9.72
2022-11-04T04:34:48.255Z,9.65
2022-11-04T04:35:54.131Z,9.67
2022-11-04T04:37:08.908Z,9.58
2022-11-04T04:38:43.851Z,9.58
2022-11-04T04:40:06.661Z,9.56
2022-11-04T04:41:47.505Z,9.50
2022-11-04T04:43:12.072Z,9.38
2022-11-04T04:44:40.978Z,9.31
2022-11-04T04:45:48.244Z,9.28
2022-11-04T04:46:53.871Z,9.31
2022-11-04T04:47:56.777Z,9.22
2022-11-04T04:49:09.074Z,9.22
2022-11-04T04:50:17.403Z,9.15
2022-11-04T04:51:19.860Z,9.09
2022-11-04T04:52:23.908Z,9.03
2022-11-04T04:53:25.764Z,8.88
2022-11-04T04:54:28.093Z,8.93
2022-11-04T04:55:31.921Z,8.77
2022-11-04T04:56:34.981Z,8.68
2022-11-04T04:57:36.906Z,8.67
2022-11-04T04:58:41.237Z,8.72
2022-11-04T04:59:43.096Z,8.98
2022-11-04T05:00:45.029Z,8.89
2022-11-04T05:01:48.013Z,8.58
2022-11-04T05:02:50.935Z,8.88
2022-11-04T05:03:54.142Z,8.72
2022-11-04T05:04:56.540Z,8.45
2022-11-04T05:06:00.928Z,8.74
2022-11-04T05:07:03.165Z,8.69
2022-11-04T05:08:07.209Z,8.62
2022-11-04T05:09:09.791Z,8.67
2022-11-04T05:10:15.091Z,8.56
2022-11-04T05:11:24.359Z,8.59
2022-11-04T05:12:48.409Z,8.59
2022-11-04T05:13:50.370Z,8.47
2022-11-04T05:14:52.648Z,8.33
2022-11-04T05:15:54.358Z,8.44
2022-11-04T05:16:56.212Z,8.52
2022-11-04T05:18:00.987Z,8.60
2022-11-04T05:19:03.133Z,8.44
2022-11-04T05:20:05.022Z,8.34
2022-11-04T05:21:14.144Z,8.65
2022-11-04T05:22:16.040Z,8.66
2022-11-04T05:23:18.048Z,8.35
2022-11-04T05:24:20.427Z,8.65
2022-11-04T05:25:22.330Z,8.60
2022-11-04T05:26:30.007Z,8.58
2022-11-04T05:27:31.583Z,8.55
2022-11-04T05:28:33.337Z,8.58
2022-11-04T05:29:38.077Z,8.56
2022-11-04T05:30:40.931Z,8.68
2022-11-04T05:31:42.817Z,8.62
2022-11-04T05:32:44.934Z,8.72
2022-11-04T05:33:47.866Z,8.73
2022-11-04T05:34:49.441Z,8.73
2022-11-04T05:35:51.126Z,8.42
2022-11-04T05:36:52.938Z,8.71
2022-11-04T05:37:56.856Z,8.66
2022-11-04T05:38:58.719Z,8.72
2022-11-04T05:40:00.401Z,8.51
2022-11-04T05:41:04.710Z,8.69
2022-11-04T05:42:06.281Z,8.67
2022-11-04T05:43:08.314Z,8.66
2022-11-04T05:44:11.970Z,8.64
2022-11-04T05:45:13.706Z,8.60
2022-11-04T05:46:17.846Z,8.29
2022-11-04T05:47:21.074Z,8.37
2022-11-04T05:48:22.679Z,8.33
2022-11-04T05:49:25.192Z,8.51
2022-11-04T05:50:27.265Z,8.22
2022-11-04T05:51:29.820Z,8.47
2022-11-04T05:52:31.493Z,8.45
2022-11-04T05:53:33.496Z,8.35
2022-11-04T05:54:38.648Z,8.39
2022-11-04T05:55:40.258Z,8.25
2022-11-04T05:56:42.004Z,8.36
2022-11-04T05:57:44.363Z,8.29
2022-11-04T05:58:46.276Z,8.22
2022-11-04T05:59:47.841Z,8.31
2022-11-04T06:00:49.775Z,8.15
2022-11-04T06:01:52.218Z,8.29
2022-11-04T06:02:57.391Z,8.21
2022-11-04T06:04:00.409Z,8.26
2022-11-04T06:05:02.789Z,8.25
2022-11-04T06:06:05.141Z,8.14
2022-11-04T06:07:07.769Z,8.25
2022-11-04T06:08:09.690Z,7.99
2022-11-04T06:09:13.101Z,8.27
2022-11-04T06:10:16.024Z,8.03
2022-11-04T06:11:20.084Z,8.23
2022-11-04T06:12:21.886Z,8.24
2022-11-04T06:13:26.522Z,8.24
2022-11-04T06:14:28.054Z,8.35
2022-11-04T06:15:32.365Z,8.33
2022-11-04T06:16:34.018Z,8.23
2022-11-04T06:17:35.903Z,8.08
2022-11-04T06:18:37.769Z,8.34
2022-11-04T06:19:39.510Z,8.16
2022-11-04T06:20:41.123Z,8.14
2022-11-04T06:21:42.694Z,8.41
2022-11-04T06:22:45.554Z,8.29
2022-11-04T06:23:47.048Z,8.11
2022-11-04T06:24:48.871Z,8.08
2022-11-04T06:25:53.414Z,8.25
2022-11-04T06:26:55.112Z,8.41
2022-11-04T06:27:57.876Z,7.74
2022-11-04T06:28:59.895Z,8.39
2022-11-04T06:30:05.406Z,8.37
2022-11-04T06:31:10.682Z,8.37
2022-11-04T06:32:16.995Z,8.28
2022-11-04T06:33:18.712Z,8.29
2022-11-04T06:34:20.702Z,8.28
2022-11-04T06:35:22.771Z,8.07
2022-11-04T06:36:24.769Z,8.06
2022-11-04T06:37:27.676Z,8.07
2022-11-04T06:38:31.752Z,8.33
2022-11-04T06:39:36.024Z,8.13
2022-11-04T06:40:37.721Z,8.36
2022-11-04T06:41:42.824Z,8.49
2022-11-04T06:42:45.440Z,8.52
2022-11-04T06:43:47.024Z,8.52
2022-11-04T06:44:49.066Z,8.17
2022-11-04T06:45:58.902Z,8.54
2022-11-04T06:47:00.668Z,8.55
2022-11-04T06:48:04.422Z,8.51
2022-11-04T06:49:10.053Z,8.62
2022-11-04T06:50:12.879Z,8.41
2022-11-04T06:51:14.455Z,8.65
2022-11-04T06:52:16.083Z,8.75
2022-11-04T06:53:17.799Z,8.48
2022-11-04T06:54:20.256Z,8.54
2022-11-04T06:55:23.049Z,8.57
2022-11-04T06:56:25.290Z,8.60
2022-11-04T06:57:26.849Z,8.79
2022-11-04T06:58:28.564Z,8.93
2022-11-04T06:59:31.919Z,8.53
2022-11-04T07:00:33.981Z,8.69
2022-11-04T07:01:37.345Z,8.88
2022-11-04T07:02:39.522Z,8.93
2022-11-04T07:03:42.319Z,8.99
2022-11-04T07:04:44.475Z,9.03
2022-11-04T07:05:46.105Z,9.05
2022-11-04T07:06:48.428Z,8.88
2022-11-04T07:07:50.588Z,8.75
2022-11-04T07:08:53.353Z,9.16
2022-11-04T07:09:55.144Z,9.14
2022-11-04T07:10:57.268Z,9.32
2022-11-04T07:11:59.102Z,9.18
2022-11-04T07:13:00.843Z,9.29
2022-11-04T07:14:02.817Z,9.18
2022-11-04T07:15:05.395Z,9.51
2022-11-04T07:16:10.619Z,9.56
2022-11-04T07:17:12.239Z,9.44
2022-11-04T07:18:14.141Z,9.58
2022-11-04T07:19:16.170Z,9.59
2022-11-04T07:20:17.923Z,9.14
2022-11-04T07:21:19.638Z,9.27
2022-11-04T07:22:22.915Z,9.29
2022-11-04T07:23:24.826Z,9.32
2022-11-04T07:24:26.678Z,9.65
2022-11-04T07:25:29.358Z,9.64
2022-11-04T07:26:31.101Z,9.59
2022-11-04T07:27:33.520Z,9.48
2022-11-04T07:28:35.600Z,9.71
2022-11-04T07:29:37.343Z,9.57
2022-11-04T07:30:40.501Z,9.91
2022-11-04T07:31:43.920Z,9.71
2022-11-04T07:32:45.586Z,9.99
2022-11-04T07:33:50.345Z,9.75
2022-11-04T07:34:52.610Z,9.95
2022-11-04T07:35:57.112Z,9.83
2022-11-04T07:37:00.096Z,10.10
2022-11-04T07:38:04.084Z,10.06
2022-11-04T07:39:07.343Z,10.09
2022-11-04T07:40:10.895Z,10.07
2022-11-04T07:41:13.870Z,9.99
2022-11-04T07:42:15.696Z,9.84
2022-11-04T07:43:17.623Z,10.07
2022-11-04T07:44:20.740Z,10.15
2022-11-04T07:45:22.737Z,10.15
2022-11-04T07:46:29.655Z,10.04
2022-11-04T07:47:32.200Z,10.17
2022-11-04T07:48:34.445Z,10.30
2022-11-04T07:49:36.145Z,10.35
2022-11-04T07:50:41.132Z,10.39
2022-11-04T07:51:43.443Z,10.43
2022-11-04T07:52:45.832Z,10.48
2022-11-04T07:53:48.191Z,10.54
2022-11-04T07:54:50.558Z,10.38
2022-11-04T07:55:52.485Z,10.41
2022-11-04T07:56:54.095Z,10.43
2022-11-04T07:57:56.234Z,10.71
2022-11-04T07:58:59.121Z,10.61
2022-11-04T08:00:00.802Z,10.79
2022-11-04T08:01:05.808Z,11.03
2022-11-04T08:02:09.160Z,11.18
2022-11-04T08:03:11.755Z,11.14
2022-11-04T08:04:13.890Z,11.02
2022-11-04T08:05:16.278Z,11.22
2022-11-04T08:06:20.461Z,11.23
2022-11-04T08:07:23.525Z,11.26
2022-11-04T08:08:28.746Z,11.22
2022-11-04T08:09:31.565Z,11.09
2022-11-04T08:10:33.605Z,11.40
2022-11-04T08:11:35.576Z,11.50
2022-11-04T08:12:38.829Z,11.56
2022-11-04T08:13:42.255Z,11.71
2022-11-04T08:14:44.200Z,11.61
2022-11-04T08:15:46.099Z,11.80
2022-11-04T08:16:51.328Z,11.89
2022-11-04T08:17:54.940Z,12.07
2022-11-04T08:19:03.854Z,12.06
2022-11-04T08:20:10.453Z,12.30
2022-11-04T08:21:14.566Z,12.54
2022-11-04T08:22:16.552Z,12.48
2022-11-04T08:23:19.047Z,12.76
2022-11-04T08:24:20.987Z,12.87
2022-11-04T08:25:23.298Z,12.87
2022-11-04T08:26:25.682Z,13.26
2022-11-04T08:27:27.721Z,13.28
2022-11-04T08:28:30.495Z,13.63
2022-11-04T08:29:32.707Z,13.93
2022-11-04T08:30:35.569Z,14.23
2022-11-04T08:31:38.151Z,14.38
2022-11-04T08:32:39.908Z,14.83
2022-11-04T08:33:43.354Z,15.27
2022-11-04T08:34:45.422Z,15.30
2022-11-04T08:35:47.874Z,15.85
2022-11-04T08:36:50.012Z,16.13
2022-11-04T08:37:51.719Z,16.39
2022-11-04T08:38:54.579Z,16.62
2022-11-04T08:39:56.292Z,16.87
2022-11-04T08:41:00.260Z,17.44
2022-11-04T08:42:02.013Z,17.31
2022-11-04T08:43:06.923Z,17.90
2022-11-04T08:44:10.398Z,18.54
2022-11-04T08:45:14.995Z,18.90
2022-11-04T08:46:17.458Z,19.09
2022-11-04T08:47:19.851Z,19.34
2022-11-04T08:48:23.479Z,19.28
2022-11-04T08:49:26.927Z,19.90
2022-11-04T08:50:36.661Z,20.14
2022-11-04T08:51:44.625Z,20.47
2022-11-04T08:52:46.676Z,20.75
2022-11-04T08:53:48.277Z,20.39
2022-11-04T08:54:56.213Z,20.13
2022-11-04T08:56:00.784Z,19.53
2022-11-04T08:57:02.555Z,19.70
2022-11-04T08:58:04.527Z,19.96
2022-11-04T08:59:06.570Z,19.71
2022-11-04T09:00:08.803Z,19.96
2022-11-04T09:01:11.437Z,18.78
2022-11-04T09:02:16.456Z,18.05
2022-11-04T09:03:18.500Z,18.59
2022-11-04T09:04:21.261Z,18.26
2022-11-04T09:05:24.203Z,17.37
2022-11-04T09:06:31.046Z,17.66
2022-11-04T09:07:32.849Z,17.52
2022-11-04T09:08:34.394Z,17.52
2022-11-04T09:09:36.715Z,17.46
2022-11-04T09:10:42.978Z,17.90
2022-11-04T09:11:46.308Z,18.11
2022-11-04T09:12:48.373Z,18.43
2022-11-04T09:13:50.334Z,18.95
2022-11-04T09:14:52.487Z,19.43
2022-11-04T09:15:54.560Z,19.57
2022-11-04T09:16:56.599Z,19.11
2022-11-04T09:17:58.288Z,19.75
2022-11-04T09:19:00.273Z,20.15
2022-11-04T09:20:02.358Z,19.92
2022-11-04T09:21:08.362Z,20.20
2022-11-04T09:22:10.299Z,19.76
2022-11-04T09:23:16.335Z,20.15
2022-11-04T09:24:19.150Z,20.09
2022-11-04T09:25:23.055Z,20.46
2022-11-04T09:26:25.918Z,19.96
2022-11-04T09:27:28.783Z,19.71
2022-11-04T09:28:30.801Z,20.57
2022-11-04T09:29:33.883Z,20.64
2022-11-04T09:30:37.333Z,20.68
2022-11-04T09:31:39.397Z,20.73
2022-11-04T09:32:41.024Z,20.13
2022-11-04T09:33:44.411Z,20.06
2022-11-04T09:34:46.053Z,19.92
2022-11-04T09:35:57.855Z,20.14
2022-11-04T09:36:59.564Z,20.53
2022-11-04T09:38:02.329Z,20.22
2022-11-04T09:39:05.237Z,20.02
2022-11-04T09:40:08.226Z,19.21
2022-11-04T09:41:22.691Z,19.24
2022-11-04T09:42:45.840Z,18.87
2022-11-04T09:44:17.149Z,18.67
2022-11-04T09:45:24.516Z,18.78
2022-11-04T09:46:27.599Z,18.86
2022-11-04T09:47:32.538Z,18.61
2022-11-04T09:48:40.925Z,18.77
2022-11-04T09:49:45.865Z,18.42
2022-11-04T09:50:53.150Z,18.60
2022-11-04T09:51:58.195Z,18.48
2022-11-04T09:53:15.045Z,18.21
2022-11-04T09:54:25.591Z,18.00
2022-11-04T09:55:41.752Z,17.82
2022-11-04T09:56:48.668Z,17.46
2022-11-04T09:58:00.697Z,17.88
2022-11-04T09:59:09.670Z,17.44
2022-11-04T10:00:18.789Z,17.09
2022-11-04T10:02:00.412Z,16.96
2022-11-04T10:03:32.271Z,16.50
2022-11-04T10:04:41.032Z,16.31
2022-11-04T10:06:04.895Z,16.21
2022-11-04T10:07:13.364Z,16.45
2022-11-04T10:08:49.139Z,16.37
2022-11-04T10:10:14.287Z,16.40
2022-11-04T10:11:37.381Z,16.39
2022-11-04T10:12:47.435Z,16.31
2022-11-04T10:14:09.434Z,16.33
2022-11-04T10:15:38.541Z,16.40
2022-11-04T10:16:43.901Z,16.40
2022-11-04T10:17:57.399Z,16.48
2022-11-04T10:19:01.929Z,16.49
2022-11-04T10:20:15.996Z,16.24
2022-11-04T10:21:46.054Z,16.50
2022-11-04T10:23:01.790Z,16.61
2022-11-04T10:24:20.771Z,16.56
2022-11-04T10:25:28.058Z,16.09
2022-11-04T10:27:01.273Z,16.38
2022-11-04T10:28:03.753Z,16.59
2022-11-04T10:29:12.625Z,16.78
2022-11-04T10:30:22.442Z,16.97
2022-11-04T10:31:26.653Z,16.72
2022-11-04T10:32:38.324Z,16.74
2022-11-04T10:33:46.067Z,16.88
2022-11-04T10:35:00.790Z,16.53
2022-11-04T10:36:08.856Z,16.82
2022-11-04T10:37:13.917Z,17.16
2022-11-04T10:38:42.291Z,17.16
2022-11-04T10:39:47.379Z,17.33
2022-11-04T10:40:52.819Z,17.65
2022-11-04T10:41:55.512Z,18.02
2022-11-04T10:43:03.041Z,17.95
2022-11-04T10:44:09.083Z,17.89
2022-11-04T10:45:14.504Z,18.38
2022-11-04T10:46:22.367Z,18.45
2022-11-04T10:47:26.771Z,18.12
2022-11-04T10:48:39.612Z,17.55
2022-11-04T10:51:25.883Z,16.77
2022-11-04T10:52:27.881Z,17.13
2022-11-04T10:53:33.910Z,16.82
2022-11-04T10:54:43.506Z,16.59
2022-11-04T10:55:57.582Z,16.32
2022-11-04T10:56:59.563Z,15.83
2022-11-04T10:58:02.588Z,15.76
2022-11-04T10:59:25.641Z,15.81
2022-11-04T11:00:53.868Z,16.08
2022-11-04T11:02:02.458Z,16.32
2022-11-04T11:03:24.923Z,16.61
2022-11-04T11:04:29.809Z,16.76
2022-11-04T11:05:31.638Z,16.92
2022-11-04T11:06:37.076Z,16.98
2022-11-04T11:07:39.106Z,16.92
2022-11-04T11:08:42.263Z,16.78
2022-11-04T11:09:57.159Z,17.38
2022-11-04T11:10:59.934Z,17.62
2022-11-04T11:12:36.332Z,17.48
2022-11-04T11:13:36.768Z,17.54
2022-11-04T11:14:41.283Z,17.80
2022-11-04T11:15:44.937Z,17.83
2022-11-04T11:16:48.559Z,17.57
2022-11-04T11:17:52.962Z,17.51
2022-11-04T11:19:15.810Z,17.52
2022-11-04T11:20:27.005Z,17.22
2022-11-04T11:21:45.364Z,17.93
2022-11-04T11:22:51.827Z,18.17
2022-11-04T11:23:57.483Z,18.10
2022-11-04T11:25:15.211Z,18.54
2022-11-04T11:26:29.356Z,18.72
2022-11-04T11:27:31.432Z,18.46
2022-11-04T11:28:38.585Z,18.92
2022-11-04T11:29:42.379Z,19.19
2022-11-04T11:30:44.581Z,19.74
2022-11-04T11:31:49.456Z,19.98
2022-11-04T11:32:56.019Z,20.08
2022-11-04T11:34:01.005Z,19.88
2022-11-04T11:35:10.705Z,19.46
2022-11-04T11:36:18.483Z,19.24
2022-11-04T11:37:25.914Z,18.72
2022-11-04T11:38:35.035Z,18.47
2022-11-04T11:39:38.041Z,17.94
2022-11-04T11:40:57.365Z,17.52
2022-11-04T11:42:07.424Z,17.40
2022-11-04T11:43:30.457Z,17.03
2022-11-04T11:44:33.332Z,16.89
2022-11-04T11:45:35.355Z,16.53
2022-11-04T11:46:38.332Z,16.29
2022-11-04T11:47:42.777Z,15.70
2022-11-04T11:48:52.847Z,15.66
2022-11-04T11:50:20.392Z,15.60
2022-11-04T11:51:36.046Z,16.15
2022-11-04T11:52:38.697Z,16.63
2022-11-04T11:53:58.365Z,17.26
2022-11-04T11:55:18.268Z,17.48
2022-11-04T11:57:14.681Z,19.13
2022-11-04T12:01:46.974Z,20.32
2022-11-04T12:03:17.741Z,20.76
2022-11-04T12:11:02.036Z,18.65
2022-11-04T12:12:19.858Z,18.90
2022-11-04T12:13:44.478Z,19.13
2022-11-04T12:15:10.276Z,20.09
2022-11-04T12:16:43.631Z,20.01
2022-11-04T12:17:59.310Z,20.14
2022-11-04T12:19:12.691Z,20.74
2022-11-04T12:20:25.230Z,20.26
2022-11-04T12:21:35.608Z,20.51
2022-11-04T12:22:56.999Z,20.28
2022-11-04T12:24:16.459Z,20.22
2022-11-04T12:25:36.566Z,19.96
2022-11-04T12:26:47.241Z,20.90
2022-11-04T12:28:04.305Z,20.98
2022-11-04T12:29:21.373Z,21.13
2022-11-04T12:30:32.354Z,19.87
2022-11-04T12:31:51.044Z,19.69
2022-11-04T12:32:56.300Z,18.79
2022-11-04T12:34:19.877Z,18.29
2022-11-04T12:35:33.185Z,18.36
2022-11-04T12:36:44.358Z,17.93
2022-11-04T12:38:22.027Z,17.97
2022-11-04T12:39:43.989Z,18.60
2022-11-04T12:41:27.677Z,18.92
2022-11-04T12:42:40.513Z,20.02
2022-11-04T12:43:42.357Z,20.69
2022-11-04T12:45:08.060Z,20.66
2022-11-04T12:46:28.160Z,20.82
2022-11-04T12:47:39.675Z,19.55
2022-11-04T12:49:07.074Z,18.49
2022-11-04T12:50:27.716Z,18.65
2022-11-04T12:51:41.079Z,19.33
2022-11-04T12:52:50.837Z,19.97
2022-11-04T12:54:06.652Z,19.98
2022-11-04T12:55:33.027Z,19.42
2022-11-04T12:56:39.012Z,19.60
2022-11-04T12:57:58.324Z,19.85
2022-11-04T12:59:37.896Z,20.06
2022-11-04T13:00:42.204Z,20.50
2022-11-04T13:02:07.712Z,20.78
2022-11-04T13:03:30.181Z,21.24
2022-11-04T13:04:41.602Z,22.31
2022-11-04T13:05:46.874Z,22.91
2022-11-04T13:07:00.882Z,24.19
2022-11-04T13:08:20.246Z,25.20
2022-11-04T13:09:40.967Z,25.57
2022-11-04T13:10:45.563Z,25.81
2022-11-04T13:11:54.237Z,25.42
2022-11-04T13:13:00.675Z,24.71
2022-11-04T13:14:31.735Z,25.00
2022-11-04T13:16:43.613Z,23.64
2022-11-04T13:17:47.883Z,22.59
2022-11-04T13:18:51.666Z,22.36
2022-11-04T13:19:58.309Z,21.95
2022-11-04T13:21:27.495Z,20.98
2022-11-04T13:22:34.457Z,20.42
2022-11-04T13:23:57.976Z,18.89
2022-11-04T13:25:06.665Z,18.57
2022-11-04T13:26:16.210Z,18.01
2022-11-04T13:27:22.945Z,17.46
2022-11-04T13:28:26.079Z,17.69
2022-11-04T13:29:29.018Z,17.62
2022-11-04T13:30:45.129Z,17.35
2022-11-04T13:31:52.422Z,17.25
2022-11-04T13:33:29.083Z,17.37
2022-11-04T13:34:55.278Z,16.88
2022-11-04T13:35:56.857Z,16.45
2022-11-04T13:37:06.892Z,16.25
2022-11-04T13:38:21.125Z,16.20
2022-11-04T13:39:36.731Z,16.31
2022-11-04T13:40:46.859Z,16.34
2022-11-04T13:42:16.329Z,16.39
2022-11-04T13:43:40.050Z,16.43
2022-11-04T13:44:48.984Z,16.39
2022-11-04T13:45:54.061Z,16.23
2022-11-04T13:47:00.856Z,16.32
2022-11-04T13:48:02.896Z,15.70
2022-11-04T13:49:11.550Z,15.62
2022-11-04T13:50:41.694Z,15.60
2022-11-04T13:52:00.337Z,15.67
2022-11-04T13:53:05.571Z,15.55
2022-11-04T13:54:31.755Z,15.34
2022-11-04T13:55:35.511Z,15.45
2022-11-04T13:56:41.443Z,15.12
2022-11-04T13:57:52.064Z,15.32
2022-11-04T13:58:59.225Z,15.59
2022-11-04T14:00:13.558Z,15.90
2022-11-04T14:01:22.249Z,16.18
2022-11-04T14:02:26.384Z,16.41
2022-11-04T14:03:28.995Z,16.52
2022-11-04T14:04:32.361Z,16.56
2022-11-04T14:05:40.477Z,16.75
2022-11-04T14:06:56.456Z,16.51
2022-11-04T14:08:04.066Z,16.69
2022-11-04T14:09:34.691Z,16.69
2022-11-04T14:11:04.555Z,16.69
2022-11-04T14:12:17.011Z,16.67
2022-11-04T14:13:31.612Z,16.65
2022-11-04T14:14:33.342Z,16.52
2022-11-04T14:16:18.952Z,16.24
2022-11-04T14:17:35.546Z,16.12
2022-11-04T14:18:39.901Z,15.69
2022-11-04T14:19:59.756Z,15.31
2022-11-04T14:21:13.733Z,15.15
2022-11-04T14:22:17.623Z,15.06
2022-11-04T14:23:24.550Z,15.07
2022-11-04T14:24:29.793Z,15.15
2022-11-04T14:25:40.395Z,15.19
2022-11-04T14:26:45.424Z,15.32
2022-11-04T14:27:50.758Z,15.62
2022-11-04T14:29:18.319Z,15.79
2022-11-04T14:30:43.894Z,15.96
2022-11-04T14:31:51.042Z,16.10
2022-11-04T14:33:01.241Z,16.19
2022-11-04T14:34:33.881Z,16.45
2022-11-04T14:35:36.805Z,16.50
2022-11-04T14:36:41.400Z,16.90
2022-11-04T14:37:44.004Z,16.98
2022-11-04T14:39:11.894Z,17.69
2022-11-04T14:40:28.876Z,17.97
2022-11-04T14:41:32.706Z,18.06
2022-11-04T14:42:43.795Z,18.44
2022-11-04T14:43:47.380Z,18.95
2022-11-04T14:44:50.946Z,19.50
2022-11-04T14:45:55.810Z,19.62
2022-11-04T14:47:25.714Z,19.79
2022-11-04T14:48:30.507Z,19.52
2022-11-04T14:49:43.997Z,19.14
2022-11-04T14:50:50.143Z,18.73
2022-11-04T14:51:55.173Z,18.37
2022-11-04T14:53:02.173Z,17.90
2022-11-04T14:54:05.826Z,17.73
2022-11-04T14:55:21.838Z,17.48
2022-11-04T14:56:24.726Z,17.17
2022-11-04T14:57:30.198Z,17.07
2022-11-04T14:58:33.370Z,16.88
2022-11-04T14:59:35.158Z,16.61
2022-11-04T15:00:50.297Z,16.57
2022-11-04T15:01:52.841Z,16.51
2022-11-04T15:03:10.315Z,16.49
2022-11-04T15:04:27.334Z,16.35